Time;durP1;ratioP1;P1;durP2;ratioP2;P2;SDS_P1;SDS_P2;PMS_P1;PMS_P2;Temp;Humidity;BMP_temperature;BMP_pressure;BME280_temperature;BME280_humidity;BME280_pressure;Samples;Min_cycle;Max_cycle;Signal;HPM_P1;HPM_P2
2022/08/15 00:01:32;;;;;;;15.10;11.80;;;;;;;19.94;82.06;99885.22;90220;1270;87919;-60
2022/08/15 00:03:44;;;;;;;13.10;11.70;;;;;;;19.93;82.12;99886.37;90198;1270;94707;-60
2022/08/15 00:05:53;;;;;;;14.00;12.60;;;;;;;19.93;82.14;99880.27;90016;1272;82678;-61
2022/08/15 00:08:01;;;;;;;17.30;12.50;;;;;;;19.93;82.10;99879.23;90115;1270;81666;-61
2022/08/15 00:10:12;;;;;;;14.10;11.30;;;;;;;19.90;82.01;99876.25;90129;1271;98307;-61
2022/08/15 00:12:21;;;;;;;16.60;11.70;;;;;;;19.89;82.12;99872.01;90112;1272;86642;-61
2022/08/15 00:14:33;;;;;;;16.40;12.60;;;;;;;19.86;82.43;99873.20;90086;1271;95437;-61
2022/08/15 00:16:44;;;;;;;14.50;11.90;;;;;;;19.89;82.37;99868.17;90070;1271;81462;-61
2022/08/15 00:18:53;;;;;;;15.40;12.50;;;;;;;19.89;82.47;99871.19;90109;1272;82989;-61
2022/08/15 00:21:02;;;;;;;16.70;13.00;;;;;;;19.89;82.46;99866.26;90098;1271;98349;-61
2022/08/15 00:23:15;;;;;;;17.60;13.10;;;;;;;19.90;82.48;99864.45;90102;1272;87932;-61
2022/08/15 00:25:26;;;;;;;14.80;13.00;;;;;;;19.88;82.74;99863.13;90095;1271;93674;-61
2022/08/15 00:27:35;;;;;;;15.70;13.00;;;;;;;19.89;82.59;99860.78;90093;1272;80742;-60
2022/08/15 00:29:43;;;;;;;15.20;12.80;;;;;;;19.93;82.71;99860.36;90125;1271;80503;-60
2022/08/15 00:31:53;;;;;;;15.90;13.20;;;;;;;19.95;82.72;99858.19;90116;1271;97346;-60
2022/08/15 00:34:03;;;;;;;15.30;13.20;;;;;;;19.93;82.66;99861.19;90117;1271;86718;-61
2022/08/15 00:36:14;;;;;;;17.50;14.00;;;;;;;19.94;82.83;99861.20;90086;1270;94190;-61
2022/08/15 00:38:26;;;;;;;16.40;13.90;;;;;;;19.92;82.97;99865.29;90074;1270;81125;-61
2022/08/15 00:41:39;;;;;;;18.10;14.50;;;;;;;19.93;82.96;99867.60;90103;1271;81590;-60
2022/08/15 00:43:05;;;;;;;20.00;15.10;;;;;;;19.96;83.03;99870.16;90105;1270;99437;-60
2022/08/15 00:45:14;;;;;;;18.00;15.80;;;;;;;19.97;83.16;99870.48;90136;1270;87856;-60
2022/08/15 00:47:26;;;;;;;21.80;15.80;;;;;;;19.96;82.86;99868.11;90082;1270;93239;-60
2022/08/15 00:49:37;;;;;;;19.20;16.60;;;;;;;19.94;82.86;99866.35;90083;1272;81222;-60
2022/08/15 00:51:51;;;;;;;21.70;16.70;;;;;;;19.90;83.02;99873.19;90112;1270;82903;-60
2022/08/15 00:54:04;;;;;;;21.00;17.30;;;;;;;19.89;82.85;99871.95;90112;1270;99730;-60
2022/08/15 00:56:16;;;;;;;24.80;18.90;;;;;;;19.87;83.02;99874.09;90118;1272;87713;-60
2022/08/15 00:58:26;;;;;;;21.80;16.70;;;;;;;19.81;83.05;99874.75;90107;1271;93292;-60
2022/08/15 01:00:39;;;;;;;22.50;17.10;;;;;;;19.82;83.04;99881.61;90101;1271;80859;-60
2022/08/15 01:02:48;;;;;;;20.00;16.20;;;;;;;19.85;83.32;99875.44;90118;1271;81979;-60
2022/08/15 01:04:58;;;;;;;21.30;16.90;;;;;;;19.88;83.46;99874.20;90121;1270;98997;-60
2022/08/15 01:07:08;;;;;;;21.60;16.60;;;;;;;19.92;83.39;99873.08;90220;1270;87893;-60
2022/08/15 01:09:19;;;;;;;20.20;16.40;;;;;;;19.93;83.64;99872.71;90190;1270;95152;-60
2022/08/15 01:11:33;;;;;;;18.00;15.30;;;;;;;19.93;83.55;99871.45;90205;1270;81317;-60
2022/08/15 01:13:43;;;;;;;19.70;15.70;;;;;;;19.95;83.55;99866.30;90256;1270;81610;-61
2022/08/15 01:15:52;;;;;;;21.00;16.80;;;;;;;19.99;83.45;99858.91;90237;1270;97517;-61
2022/08/15 01:18:01;;;;;;;17.60;15.70;;;;;;;20.01;83.63;99857.62;90215;1270;87872;-61
2022/08/15 01:20:16;;;;;;;19.50;15.30;;;;;;;20.02;83.75;99853.55;90199;1270;94357;-61
2022/08/15 01:22:50;;;;;;;18.20;15.60;;;;;;;20.04;83.52;99853.05;90202;1270;81737;-61
2022/08/15 01:25:04;;;;;;;18.80;14.90;;;;;;;20.05;83.55;99852.50;90236;1270;82064;-61
2022/08/15 01:27:14;;;;;;;19.60;15.90;;;;;;;20.06;83.58;99847.72;90208;1270;98288;-61
2022/08/15 01:29:24;;;;;;;20.00;14.50;;;;;;;20.06;83.56;99848.77;90203;1270;88280;-61
2022/08/15 01:31:33;;;;;;;17.80;15.20;;;;;;;20.07;83.73;99845.38;90162;1270;95334;-61
2022/08/15 01:33:46;;;;;;;19.80;14.90;;;;;;;20.07;83.76;99843.07;90153;1270;81550;-61
2022/08/15 01:35:58;;;;;;;17.50;15.70;;;;;;;20.07;83.72;99842.09;90220;1270;82065;-61
2022/08/15 01:38:20;;;;;;;17.30;15.50;;;;;;;20.06;83.59;99845.54;90197;1270;98785;-61
2022/08/15 01:40:40;;;;;;;16.70;14.30;;;;;;;20.06;83.81;99851.08;90221;1270;86883;-58
2022/08/15 01:42:51;;;;;;;20.60;15.30;;;;;;;20.06;83.78;99849.91;90174;1270;94946;-58
2022/08/15 01:45:11;;;;;;;17.60;14.90;;;;;;;20.06;83.74;99851.25;90187;1270;81944;-58
2022/08/15 01:47:27;;;;;;;16.30;13.90;;;;;;;20.07;83.80;99850.70;90196;1270;81735;-59
2022/08/15 01:49:41;;;;;;;15.90;14.40;;;;;;;20.10;83.72;99853.85;90187;1270;98071;-59
2022/08/15 01:51:51;;;;;;;19.00;15.30;;;;;;;20.07;84.00;99856.29;90235;1270;87972;-59
2022/08/15 01:54:06;;;;;;;17.40;15.40;;;;;;;20.02;84.02;99852.64;90192;1270;94063;-59
2022/08/15 01:56:20;;;;;;;18.00;14.90;;;;;;;20.00;84.13;99852.46;90186;1270;79150;-59
2022/08/15 01:58:29;;;;;;;17.80;15.60;;;;;;;20.04;84.23;99850.56;90212;1270;81494;-60
2022/08/15 02:00:39;;;;;;;17.60;15.10;;;;;;;20.07;84.13;99854.86;90205;1270;98562;-60
2022/08/15 02:02:48;;;;;;;19.00;16.00;;;;;;;20.07;84.16;99852.95;90211;1270;88143;-60
2022/08/15 02:04:57;;;;;;;18.40;15.30;;;;;;;20.09;84.28;99854.48;90186;1270;93555;-60
2022/08/15 02:07:10;;;;;;;16.60;14.40;;;;;;;20.10;84.22;99854.40;90191;1270;80933;-60
2022/08/15 02:09:21;;;;;;;17.70;15.00;;;;;;;20.10;84.30;99855.16;90224;1270;81803;-60
2022/08/15 02:11:32;;;;;;;17.40;15.40;;;;;;;20.08;84.22;99855.48;90215;1270;98062;-60
2022/08/15 02:13:41;;;;;;;16.90;15.10;;;;;;;20.09;84.33;99857.05;90226;1270;88483;-60
2022/08/15 02:15:50;;;;;;;17.90;16.10;;;;;;;20.09;84.19;99850.49;90192;1270;94651;-60
2022/08/15 02:17:59;;;;;;;22.20;17.10;;;;;;;20.07;84.39;99848.35;90202;1270;81298;-59
2022/08/15 02:20:12;;;;;;;20.30;16.80;;;;;;;20.02;84.64;99842.49;90228;1270;82054;-59
2022/08/15 02:22:23;;;;;;;19.50;17.40;;;;;;;20.03;84.65;99844.80;90219;1270;98102;-60
2022/08/15 02:24:32;;;;;;;18.60;15.80;;;;;;;20.04;84.60;99842.55;90223;1270;86419;-61
2022/08/15 02:26:41;;;;;;;18.30;16.40;;;;;;;20.04;84.43;99839.27;90207;1270;93424;-59
2022/08/15 02:28:50;;;;;;;22.30;17.00;;;;;;;20.03;84.38;99832.69;90165;1270;79642;-59
2022/08/15 02:30:59;;;;;;;19.50;16.90;;;;;;;19.99;84.47;99829.37;90213;1270;81454;-59
2022/08/15 02:33:09;;;;;;;18.60;16.70;;;;;;;19.97;84.56;99829.83;90215;1270;98442;-59
2022/08/15 02:35:19;;;;;;;21.90;16.70;;;;;;;19.95;84.53;99827.70;90186;1270;88033;-59
2022/08/15 02:37:29;;;;;;;18.60;16.70;;;;;;;19.92;84.90;99823.06;90166;1270;94558;-59
2022/08/15 02:39:39;;;;;;;18.40;16.50;;;;;;;19.96;84.65;99830.23;90167;1270;81682;-59
2022/08/15 02:41:51;;;;;;;18.70;16.80;;;;;;;19.99;84.69;99828.39;90211;1270;83031;-60
2022/08/15 02:44:01;;;;;;;18.50;16.40;;;;;;;20.02;84.70;99830.92;90221;1270;99492;-60
2022/08/15 02:46:10;;;;;;;18.40;16.50;;;;;;;20.05;84.79;99827.38;90193;1270;88130;-60
2022/08/15 02:48:19;;;;;;;20.10;18.00;;;;;;;19.98;84.94;99831.33;90198;1270;94912;-60
2022/08/15 02:50:27;;;;;;;21.20;18.10;;;;;;;19.94;85.02;99830.88;90019;1272;81956;-60
2022/08/15 02:52:41;;;;;;;19.30;17.30;;;;;;;19.96;85.02;99827.81;90202;1270;80924;-59
2022/08/15 02:54:49;;;;;;;;;;;;;;;19.99;84.88;99821.31;90208;1270;99757;-59
2022/08/15 02:56:58;;;;;;;19.70;17.10;;;;;;;20.00;85.16;99815.73;90215;1270;87600;-59
2022/08/15 02:59:09;;;;;;;19.90;17.60;;;;;;;19.98;85.22;99810.88;90188;1270;94393;-59
2022/08/15 03:01:18;;;;;;;17.50;15.70;;;;;;;19.98;85.08;99810.33;90193;1270;81423;-59
2022/08/15 03:03:28;;;;;;;19.90;17.00;;;;;;;19.98;85.10;99806.27;90152;1270;82837;-59
2022/08/15 03:05:40;;;;;;;20.00;17.40;;;;;;;20.00;85.06;99806.61;90106;1270;98856;-59
2022/08/15 03:07:49;;;;;;;17.80;16.00;;;;;;;20.01;84.95;99807.23;90094;1271;88001;-59
2022/08/15 03:09:58;;;;;;;19.70;16.90;;;;;;;20.03;84.97;99807.56;90075;1271;92492;-60
2022/08/15 03:12:07;;;;;;;18.20;16.30;;;;;;;20.04;84.95;99807.90;90099;1272;82488;-59
2022/08/15 03:14:20;;;;;;;21.30;16.80;;;;;;;20.03;85.14;99808.98;90124;1270;83031;-58
2022/08/15 03:16:30;;;;;;;17.90;16.10;;;;;;;20.00;85.09;99810.57;90101;1270;99074;-59
2022/08/15 03:18:41;;;;;;;18.80;17.00;;;;;;;20.04;84.99;99814.76;90106;1270;88172;-59
2022/08/15 03:20:51;;;;;;;17.60;15.80;;;;;;;20.05;85.07;99819.92;90085;1272;94331;-60
2022/08/15 03:23:00;;;;;;;19.20;16.10;;;;;;;20.07;85.09;99820.64;90092;1270;81537;-60
2022/08/15 03:25:11;;;;;;;20.00;16.20;;;;;;;20.07;84.93;99815.27;90113;1270;80231;-60
2022/08/15 03:27:19;;;;;;;18.00;15.70;;;;;;;20.09;85.07;99816.09;90117;1270;98790;-59
2022/08/15 03:29:28;;;;;;;17.00;15.20;;;;;;;20.09;85.10;99817.64;90103;1270;88980;-59
2022/08/15 03:31:36;;;;;;;18.10;15.80;;;;;;;20.14;85.08;99819.37;90098;1270;93385;-59
2022/08/15 03:33:46;;;;;;;18.20;16.00;;;;;;;20.17;85.02;99822.79;90107;1270;81606;-59
2022/08/15 03:35:55;;;;;;;17.20;15.50;;;;;;;20.21;85.00;99822.75;90130;1270;82181;-59
2022/08/15 03:38:04;;;;;;;17.90;16.00;;;;;;;20.25;85.14;99817.09;90111;1270;98289;-59
2022/08/15 03:40:15;;;;;;;16.70;14.90;;;;;;;20.31;84.84;99814.23;90089;1271;86754;-59
2022/08/15 03:42:25;;;;;;;17.60;15.50;;;;;;;20.32;84.88;99817.20;90081;1271;93064;-59
2022/08/15 03:44:34;;;;;;;18.30;16.10;;;;;;;20.32;84.87;99822.56;90070;1271;81497;-59
2022/08/15 03:46:42;;;;;;;16.70;15.00;;;;;;;20.32;85.24;99825.42;89720;1271;496553;-59
2022/08/15 03:48:56;;;;;;;17.40;15.30;;;;;;;20.33;85.14;99834.64;90103;1270;97922;-59
2022/08/15 03:51:07;;;;;;;17.70;15.70;;;;;;;20.37;85.02;99839.06;90096;1271;87576;-59
2022/08/15 03:53:16;;;;;;;19.50;15.40;;;;;;;20.41;85.20;99833.27;90089;1270;92714;-60
2022/08/15 03:55:26;;;;;;;17.10;14.90;;;;;;;20.43;85.14;99827.89;90078;1270;80427;-60
2022/08/15 03:57:35;;;;;;;17.20;15.50;;;;;;;20.52;85.06;99825.58;90132;1270;81437;-60
2022/08/15 03:59:43;;;;;;;17.10;15.40;;;;;;;20.59;84.99;99819.56;90106;1270;99415;-60
2022/08/15 04:01:52;;;;;;;18.00;14.80;;;;;;;20.62;85.11;99818.91;90118;1270;87835;-59
2022/08/15 04:04:01;;;;;;;16.60;14.90;;;;;;;20.62;85.07;99817.15;90086;1272;93779;-59
2022/08/15 04:06:14;;;;;;;18.80;15.00;;;;;;;20.74;84.92;99819.55;90079;1272;81168;-59
2022/08/15 04:08:28;;;;;;;16.40;14.60;;;;;;;20.90;84.78;99814.89;90115;1270;82728;-59
2022/08/15 04:10:39;;;;;;;16.50;14.80;;;;;;;20.88;84.78;99805.81;90100;1272;99354;-59
2022/08/15 04:12:48;;;;;;;17.40;14.80;;;;;;;20.97;84.46;99800.89;90112;1271;88052;-59
2022/08/15 04:14:57;;;;;;;16.80;15.10;;;;;;;21.03;84.33;99801.30;90081;1270;94046;-60
2022/08/15 04:17:06;;;;;;;15.60;13.90;;;;;;;21.10;84.07;99796.55;90068;1272;80517;-59
2022/08/15 04:19:15;;;;;;;17.70;15.00;;;;;;;21.17;84.22;99794.96;90129;1271;82731;-59
2022/08/15 04:21:24;;;;;;;16.50;14.80;;;;;;;21.27;84.07;99795.36;90096;1272;99464;-59
2022/08/15 04:23:33;;;;;;;15.80;14.20;;;;;;;21.36;84.03;99792.77;90111;1271;88208;-59
2022/08/15 04:25:44;;;;;;;16.80;15.10;;;;;;;21.48;83.89;99792.45;90119;1271;93922;-59
2022/08/15 04:27:59;;;;;;;16.00;14.30;;;;;;;21.56;83.73;99788.87;90086;1272;80557;-60
2022/08/15 04:30:11;;;;;;;17.20;15.40;;;;;;;21.69;83.36;99788.30;90120;1271;81700;-60
2022/08/15 04:32:20;;;;;;;15.70;14.00;;;;;;;21.76;83.37;99783.85;90121;1270;100021;-59
2022/08/15 04:34:29;;;;;;;17.20;15.40;;;;;;;21.89;83.11;99786.92;90132;1270;88233;-59
2022/08/15 04:36:38;;;;;;;16.40;14.70;;;;;;;21.97;82.88;99787.03;90115;1270;93835;-59
2022/08/15 04:38:50;;;;;;;17.50;15.80;;;;;;;22.05;82.96;99792.73;90068;1271;82190;-60
2022/08/15 04:41:01;;;;;;;17.50;15.90;;;;;;;22.19;82.78;99798.26;90124;1270;80475;-60
2022/08/15 04:43:11;;;;;;;16.90;15.20;;;;;;;22.47;82.65;99797.15;90101;1271;99114;-60
2022/08/15 04:45:20;;;;;;;16.90;15.10;;;;;;;22.99;82.44;99793.27;90119;1270;87930;-60
2022/08/15 04:47:29;;;;;;;16.00;14.50;;;;;;;23.91;81.62;99790.60;90108;1270;93698;-60
2022/08/15 04:49:38;;;;;;;17.30;15.60;;;;;;;24.77;80.39;99789.48;90108;1270;80711;-59
2022/08/15 04:51:47;;;;;;;16.40;14.10;;;;;;;25.65;78.88;99789.98;90129;1271;80769;-60
2022/08/15 04:53:55;;;;;;;17.30;15.30;;;;;;;26.39;77.80;99795.42;90127;1270;97089;-60
2022/08/15 04:56:07;;;;;;;18.00;15.00;;;;;;;26.79;76.25;99797.60;90134;1271;88914;-60
2022/08/15 04:58:16;;;;;;;16.80;15.20;;;;;;;27.00;75.36;99793.64;90115;1272;94120;-60
2022/08/15 05:00:30;;;;;;;16.40;14.50;;;;;;;27.57;74.10;99792.93;90095;1270;79116;-60
2022/08/15 05:02:40;;;;;;;15.20;13.80;;;;;;;27.87;73.77;99785.08;90141;1270;81752;-60
2022/08/15 05:04:48;;;;;;;15.60;14.10;;;;;;;28.09;72.46;99789.60;90126;1270;98998;-60
2022/08/15 05:06:57;;;;;;;15.70;13.70;;;;;;;28.13;71.58;99795.65;90144;1271;87875;-60
2022/08/15 05:09:05;;;;;;;15.20;13.70;;;;;;;28.23;71.20;99800.21;90117;1270;93828;-60
2022/08/15 05:11:18;;;;;;;15.60;14.10;;;;;;;28.29;69.93;99800.83;90120;1270;77940;-60
2022/08/15 05:13:30;;;;;;;21.40;14.90;;;;;;;28.08;69.71;99804.58;90136;1271;82071;-60
2022/08/15 05:15:39;;;;;;;14.80;13.30;;;;;;;27.81;69.27;99805.88;90130;1270;99015;-60
2022/08/15 05:17:48;;;;;;;15.60;14.20;;;;;;;27.79;68.46;99811.48;90126;1270;87783;-60
2022/08/15 05:19:57;;;;;;;15.20;13.80;;;;;;;27.47;68.10;99815.39;90124;1270;93841;-60
2022/08/15 05:22:05;;;;;;;15.00;13.60;;;;;;;27.20;68.13;99812.70;90112;1270;79844;-60
2022/08/15 05:24:14;;;;;;;14.70;13.30;;;;;;;26.92;68.45;99812.00;90133;1270;80704;-60
2022/08/15 05:26:23;;;;;;;15.10;13.70;;;;;;;26.89;67.93;99810.25;90134;1270;98178;-60
2022/08/15 05:28:32;;;;;;;14.50;13.00;;;;;;;27.18;68.28;99817.02;90131;1270;88147;-60
2022/08/15 05:30:41;;;;;;;14.90;13.50;;;;;;;28.44;67.81;99810.23;90116;1270;95461;-60
2022/08/15 05:33:00;;;;;;;15.00;13.50;;;;;;;29.51;66.55;99810.54;90127;1270;80660;-60
2022/08/15 05:35:10;;;;;;;14.70;13.30;;;;;;;30.29;63.99;99813.59;90122;1270;82404;-60
2022/08/15 05:37:19;;;;;;;14.40;13.10;;;;;;;30.47;63.70;99815.98;90136;1271;99176;-60
2022/08/15 05:39:31;;;;;;;13.90;12.60;;;;;;;30.29;62.97;99817.90;90120;1270;87524;-60
2022/08/15 05:41:51;;;;;;;15.00;13.60;;;;;;;29.85;62.03;99823.94;90113;1270;93601;-60
2022/08/15 05:44:08;;;;;;;14.80;13.30;;;;;;;30.33;62.20;99822.24;90103;1271;79141;-61
2022/08/15 05:46:24;;;;;;;14.50;13.20;;;;;;;30.11;61.03;99817.53;90121;1270;82072;-60
2022/08/15 05:48:36;;;;;;;15.50;12.80;;;;;;;30.08;61.37;99815.17;90133;1270;99210;-60
2022/08/15 05:50:53;;;;;;;13.30;12.10;;;;;;;29.37;61.07;99816.48;90141;1270;87261;-60
2022/08/15 05:53:25;;;;;;;13.80;12.30;;;;;;;28.40;62.01;99814.46;90105;1271;95035;-60
2022/08/15 05:55:44;;;;;;;14.40;13.00;;;;;;;27.65;62.65;99818.89;90128;1271;77815;-60
2022/08/15 05:58:10;;;;;;;14.70;13.40;;;;;;;27.13;63.13;99819.40;90135;1270;82056;-60
2022/08/15 06:00:20;;;;;;;15.30;13.90;;;;;;;26.70;63.86;99828.38;90143;1270;98485;-60
2022/08/15 06:02:36;;;;;;;15.20;13.70;;;;;;;26.39;64.50;99833.00;90102;1270;88632;-60
2022/08/15 06:04:53;;;;;;;15.60;14.20;;;;;;;26.18;64.75;99835.94;90130;1271;94086;-60
2022/08/15 06:07:06;;;;;;;14.20;12.90;;;;;;;26.00;65.06;99841.90;90098;1270;79320;-60
2022/08/15 06:09:32;;;;;;;;;;;;;;;25.85;65.54;99839.19;90153;1271;80355;-60
2022/08/15 06:11:46;;;;;;;15.50;13.90;;;;;;;25.73;65.97;99837.27;90121;1270;97704;-60
2022/08/15 06:13:59;;;;;;;14.10;12.70;;;;;;;25.52;66.36;99840.23;90106;1272;88811;-60
2022/08/15 06:16:16;;;;;;;14.90;13.50;;;;;;;25.54;66.61;99844.06;90128;1271;93166;-60
2022/08/15 06:18:27;;;;;;;14.80;12.80;;;;;;;25.83;66.78;99839.83;90093;1271;79928;-59
2022/08/15 06:20:47;;;;;;;14.60;13.40;;;;;;;27.00;66.65;99843.19;90130;1271;81425;-60
2022/08/15 06:23:06;;;;;;;13.90;12.70;;;;;;;27.95;65.05;99838.23;90113;1270;97871;-60
2022/08/15 06:25:27;;;;;;;14.30;13.00;;;;;;;27.90;64.14;99835.75;90128;1271;88427;-60
2022/08/15 06:27:48;;;;;;;14.00;12.70;;;;;;;29.22;63.69;99831.90;90107;1270;93806;-60
2022/08/15 06:30:08;;;;;;;13.20;12.10;;;;;;;30.57;62.97;99826.14;90113;1271;80381;-60
2022/08/15 06:32:23;;;;;;;13.20;11.90;;;;;;;31.85;60.71;99828.45;90109;1270;81939;-60
2022/08/15 06:34:56;;;;;;;14.30;12.80;;;;;;;32.82;57.80;99821.13;90108;1270;98216;-60
2022/08/15 06:37:14;;;;;;;12.80;11.70;;;;;;;33.60;55.11;99820.11;90115;1272;87342;-60
2022/08/15 06:39:34;;;;;;;12.50;11.40;;;;;;;34.20;54.15;99822.29;90077;1270;94962;-60
2022/08/15 06:41:52;;;;;;;13.40;12.10;;;;;;;34.52;53.07;99822.83;90114;1272;79254;-61
2022/08/15 06:44:02;;;;;;;12.40;11.40;;;;;;;34.69;52.13;99818.59;90109;1272;81638;-61
2022/08/15 06:46:11;;;;;;;11.80;10.70;;;;;;;35.11;51.61;99818.67;90124;1271;99944;-61
2022/08/15 06:48:24;;;;;;;12.60;11.40;;;;;;;35.26;49.89;99823.25;90122;1272;88904;-61
2022/08/15 06:50:39;;;;;;;12.60;11.30;;;;;;;35.36;48.26;99819.70;90105;1272;92939;-61
2022/08/15 06:52:54;;;;;;;12.60;11.40;;;;;;;34.62;48.26;99816.59;90077;1272;79359;-60
2022/08/15 06:55:03;;;;;;;13.40;12.20;;;;;;;33.55;48.99;99819.38;90101;1271;83099;-60
2022/08/15 06:57:20;;;;;;;13.10;12.10;;;;;;;32.52;49.64;99824.26;90145;1270;98248;-60
2022/08/15 06:59:39;;;;;;;13.10;11.70;;;;;;;32.47;50.61;99822.58;90116;1271;87443;-60
2022/08/15 07:02:01;;;;;;;13.00;11.70;;;;;;;32.47;49.95;99824.88;90111;1271;94526;-60
2022/08/15 07:04:20;;;;;;;14.80;13.00;;;;;;;31.68;50.74;99825.05;90105;1271;79279;-61
2022/08/15 07:06:37;;;;;;;13.40;12.20;;;;;;;30.99;50.85;99827.03;90111;1272;82545;-60
2022/08/15 07:08:56;;;;;;;13.50;12.20;;;;;;;30.19;52.06;99827.43;90122;1271;99310;-60
2022/08/15 07:11:14;;;;;;;12.90;11.70;;;;;;;29.70;53.08;99831.45;90149;1272;87933;-61
2022/08/15 07:13:30;;;;;;;13.80;12.50;;;;;;;29.37;53.74;99837.23;90092;1271;93245;-60
2022/08/15 07:15:55;;;;;;;13.40;12.10;;;;;;;28.98;54.23;99837.91;90090;1271;78193;-61
2022/08/15 07:18:09;;;;;;;13.90;12.60;;;;;;;28.76;54.86;99832.40;90121;1272;82171;-61
2022/08/15 07:20:18;;;;;;;13.20;12.20;;;;;;;28.74;55.36;99837.61;90112;1271;99804;-61
2022/08/15 07:22:27;;;;;;;15.20;13.50;;;;;;;28.63;55.82;99840.89;90117;1272;88946;-61
2022/08/15 07:24:37;;;;;;;15.20;13.90;;;;;;;28.26;56.44;99836.80;90115;1271;94116;-61
2022/08/15 07:26:54;;;;;;;14.50;13.20;;;;;;;28.16;56.60;99838.19;90102;1272;79278;-62
2022/08/15 07:29:11;;;;;;;14.50;13.00;;;;;;;27.93;57.08;99840.13;90128;1271;82216;-62
2022/08/15 07:31:29;;;;;;;15.50;13.80;;;;;;;27.72;57.68;99848.83;90136;1271;98758;-60
2022/08/15 07:33:42;;;;;;;14.10;12.70;;;;;;;27.57;58.19;99851.06;90096;1271;88886;-60
2022/08/15 07:36:03;;;;;;;14.30;12.80;;;;;;;27.53;58.48;99846.10;90116;1272;94476;-60
2022/08/15 07:38:15;;;;;;;14.70;13.30;;;;;;;27.51;58.86;99841.93;90094;1270;80216;-60
2022/08/15 07:40:30;;;;;;;13.90;12.50;;;;;;;27.58;59.12;99838.30;90127;1270;82026;-60
2022/08/15 07:42:45;;;;;;;14.10;12.80;;;;;;;27.49;59.23;99832.95;90123;1270;98302;-60
2022/08/15 07:44:57;;;;;;;14.00;12.80;;;;;;;27.42;59.61;99835.39;90130;1272;87331;-60
2022/08/15 07:47:19;;;;;;;13.90;12.60;;;;;;;27.34;59.74;99836.06;90092;1272;94152;-60
2022/08/15 07:49:31;;;;;;;14.50;13.00;;;;;;;27.25;60.11;99839.11;90099;1271;79699;-60
2022/08/15 07:51:51;;;;;;;14.70;13.10;;;;;;;27.24;60.45;99837.98;90114;1271;81619;-60
2022/08/15 07:54:04;;;;;;;14.50;13.20;;;;;;;27.28;60.34;99841.52;90087;1272;98895;-61
2022/08/15 07:56:16;;;;;;;14.90;13.60;;;;;;;27.47;60.69;99842.85;90109;1272;88200;-61
2022/08/15 07:58:26;;;;;;;14.30;12.90;;;;;;;27.82;60.62;99839.80;90104;1272;94169;-61
2022/08/15 08:00:39;;;;;;;13.80;12.50;;;;;;;28.02;60.16;99840.21;90103;1271;79415;-60
2022/08/15 08:02:58;;;;;;;13.30;12.10;;;;;;;28.42;60.15;99839.52;90133;1272;82372;-60
2022/08/15 08:05:07;;;;;;;14.00;12.70;;;;;;;29.19;59.70;99838.94;90108;1272;98152;-60
2022/08/15 08:07:25;;;;;;;13.20;11.90;;;;;;;29.51;58.43;99832.19;90117;1270;87657;-60
2022/08/15 08:09:44;;;;;;;14.20;12.70;;;;;;;29.39;58.11;99836.15;90110;1272;94250;-60
2022/08/15 08:11:57;;;;;;;13.50;12.30;;;;;;;29.69;58.43;99831.82;90117;1271;80750;-60
2022/08/15 08:14:13;;;;;;;14.10;12.70;;;;;;;30.03;56.64;99834.95;90104;1271;81807;-60
2022/08/15 08:16:30;;;;;;;12.40;11.30;;;;;;;29.67;56.10;99834.98;90115;1271;100424;-60
2022/08/15 08:18:55;;;;;;;13.40;12.30;;;;;;;29.19;56.40;99834.87;90104;1272;87521;-60
2022/08/15 08:21:11;;;;;;;13.30;12.00;;;;;;;28.79;57.02;99838.88;90102;1272;95158;-60
2022/08/15 08:23:27;;;;;;;13.90;12.50;;;;;;;28.49;57.40;99840.04;90086;1272;80132;-60
2022/08/15 08:25:44;;;;;;;12.60;11.40;;;;;;;28.26;58.02;99839.86;90121;1272;82351;-60
2022/08/15 08:28:08;;;;;;;14.50;13.10;;;;;;;28.05;58.19;99841.41;90082;1271;99241;-61
2022/08/15 08:30:23;;;;;;;13.50;12.10;;;;;;;27.94;58.58;99841.96;90113;1272;87937;-61
2022/08/15 08:32:42;;;;;;;14.30;13.00;;;;;;;28.02;58.46;99842.27;90115;1272;93953;-60
2022/08/15 08:35:02;;;;;;;12.90;11.60;;;;;;;28.15;58.77;99841.11;90104;1271;80112;-60
2022/08/15 08:37:24;;;;;;;14.20;12.80;;;;;;;28.29;58.57;99839.16;90119;1271;82564;-60
2022/08/15 08:39:47;;;;;;;14.00;12.60;;;;;;;28.54;58.79;99837.86;90127;1271;98742;-60
2022/08/15 08:42:07;;;;;;;13.80;12.30;;;;;;;28.64;58.56;99841.07;90121;1272;88639;-61
2022/08/15 08:44:29;;;;;;;13.20;11.90;;;;;;;28.80;58.76;99840.56;90119;1271;94996;-61
2022/08/15 08:47:06;;;;;;;14.00;12.40;;;;;;;28.94;58.24;99845.59;90103;1271;80684;-60
2022/08/15 08:49:23;;;;;;;13.10;11.70;;;;;;;29.00;57.82;99847.25;90136;1271;81911;-60
2022/08/15 08:51:42;;;;;;;14.20;12.30;;;;;;;29.12;58.24;99843.27;90112;1272;98273;-60
2022/08/15 08:54:04;;;;;;;12.40;11.40;;;;;;;29.18;57.98;99845.31;90109;1271;88953;-61
2022/08/15 08:56:20;;;;;;;13.90;12.60;;;;;;;29.09;57.85;99850.30;90110;1272;91864;-61
2022/08/15 08:58:36;;;;;;;13.60;12.40;;;;;;;28.96;57.32;99849.50;90103;1272;78890;-61
2022/08/15 09:00:50;;;;;;;15.70;12.90;;;;;;;28.82;57.40;99849.46;90128;1272;82004;-60
2022/08/15 09:03:10;;;;;;;13.80;12.50;;;;;;;28.52;57.57;99849.92;90131;1271;99331;-60
2022/08/15 09:05:32;;;;;;;13.30;12.20;;;;;;;28.31;57.96;99848.14;90134;1270;87338;-60
2022/08/15 09:07:48;;;;;;;14.20;12.80;;;;;;;28.16;58.00;99849.20;90119;1272;94293;-61
2022/08/15 09:10:00;;;;;;;14.30;12.90;;;;;;;28.04;58.70;99849.45;90092;1271;79110;-61
2022/08/15 09:14:47;;;;;;;14.70;13.20;;;;;;;27.86;59.58;99854.44;90107;1272;98085;-61
2022/08/15 09:17:00;;;;;;;14.40;13.00;;;;;;;27.87;59.57;99851.73;90121;1272;87996;-61
2022/08/15 09:19:17;;;;;;;14.20;12.70;;;;;;;27.74;59.71;99856.20;90087;1272;94456;-61
2022/08/15 09:21:26;;;;;;;13.30;11.90;;;;;;;27.59;59.96;99858.42;90098;1270;80099;-61
2022/08/15 09:23:40;;;;;;;14.80;13.30;;;;;;;27.54;59.97;99854.02;90132;1271;82796;-61
2022/08/15 09:25:59;;;;;;;14.00;12.80;;;;;;;27.68;60.12;99853.52;90043;1273;99882;-60
2022/08/15 09:28:17;;;;;;;13.60;12.30;;;;;;;27.95;60.31;99855.77;90142;1271;89049;-60
2022/08/15 09:30:28;;;;;;;13.90;12.50;;;;;;;28.31;59.86;99851.23;90137;1271;93551;-60
2022/08/15 09:32:57;;;;;;;14.40;12.70;;;;;;;28.64;59.43;99850.15;90124;1272;79876;-60
2022/08/15 09:35:47;;;;;;;13.80;12.40;;;;;;;28.99;59.05;99852.34;90142;1271;82279;-60
2022/08/15 09:38:37;;;;;;;14.00;12.80;;;;;;;29.35;58.44;99852.10;90120;1270;98867;-60
2022/08/15 09:41:10;;;;;;;13.40;12.10;;;;;;;29.71;58.32;99847.56;90132;1271;87661;-60
2022/08/15 09:44:02;;;;;;;13.10;11.90;;;;;;;29.85;57.89;99848.54;90006;1272;94592;-61
2022/08/15 09:46:47;;;;;;;13.60;12.40;;;;;;;29.77;57.63;99843.49;90120;1272;79380;-60
2022/08/15 09:49:12;;;;;;;13.50;12.20;;;;;;;29.81;57.30;99841.27;90127;1271;81346;-60
2022/08/15 09:52:05;;;;;;;12.80;11.40;;;;;;;29.96;56.79;99838.45;90133;1270;99784;-61
2022/08/15 09:54:23;;;;;;;13.60;12.00;;;;;;;29.95;56.49;99835.05;90140;1271;87224;-58
2022/08/15 09:56:37;;;;;;;13.60;11.80;;;;;;;30.05;56.22;99828.43;90107;1272;93878;-60
2022/08/15 09:58:58;;;;;;;12.40;11.20;;;;;;;29.96;56.12;99824.81;90079;1272;80705;-60
2022/08/15 10:01:16;;;;;;;11.80;10.80;;;;;;;29.76;55.96;99821.79;90132;1272;82871;-59
2022/08/15 10:03:49;;;;;;;13.10;11.70;;;;;;;29.66;56.31;99818.98;90096;1271;98830;-59
2022/08/15 10:06:09;;;;;;;13.00;11.70;;;;;;;29.66;55.99;99818.64;90133;1271;88398;-59
2022/08/15 10:08:21;;;;;;;12.60;11.30;;;;;;;29.52;55.91;99816.73;90110;1270;95322;-59
2022/08/15 10:10:53;;;;;;;12.70;11.60;;;;;;;29.51;56.12;99820.17;90101;1272;80799;-60
2022/08/15 10:13:48;;;;;;;15.20;11.80;;;;;;;29.49;56.23;99817.51;90114;1272;81757;-60
2022/08/15 10:15:58;;;;;;;13.30;12.00;;;;;;;29.47;56.30;99815.93;89927;1272;98299;-60
2022/08/15 10:18:08;;;;;;;12.80;11.60;;;;;;;29.50;56.59;99811.45;90126;1271;89074;-59
2022/08/15 10:20:59;;;;;;;13.10;11.70;;;;;;;29.61;56.41;99809.31;90109;1270;95181;-59